createdAt,value
2022-08-27T00:00:51.683Z,16.63
2022-08-27T00:03:20.450Z,16.80
2022-08-27T00:05:48.981Z,17.23
2022-08-27T00:08:17.486Z,16.48
2022-08-27T00:10:45.595Z,16.70
2022-08-27T00:13:15.953Z,17.75
2022-08-27T00:15:44.577Z,20.73
2022-08-27T00:18:13.617Z,17.45
2022-08-27T00:20:41.776Z,19.67
2022-08-27T00:23:10.534Z,18.20
2022-08-27T00:25:39.054Z,16.83
2022-08-27T00:28:07.490Z,18.15
2022-08-27T00:30:36.935Z,20.17
2022-08-27T00:33:06.347Z,19.67
2022-08-27T00:35:34.681Z,18.75
2022-08-27T00:38:03.169Z,19.35
2022-08-27T00:40:31.611Z,18.65
2022-08-27T00:43:03.438Z,17.50
2022-08-27T00:45:42.317Z,18.73
2022-08-27T00:48:15.886Z,17.80
2022-08-27T00:50:54.153Z,18.65
2022-08-27T00:53:29.615Z,16.45
2022-08-27T00:56:05.642Z,17.42
2022-08-27T00:58:37.884Z,17.95
2022-08-27T01:01:12.759Z,17.08
2022-08-27T01:03:47.682Z,16.42
2022-08-27T01:06:19.024Z,14.98
2022-08-27T01:08:53.756Z,16.83
2022-08-27T01:11:22.829Z,15.23
2022-08-27T01:14:00.454Z,17.33
2022-08-27T01:16:37.160Z,16.90
2022-08-27T01:19:12.542Z,16.67
2022-08-27T01:22:09.076Z,15.65
2022-08-27T01:24:44.849Z,18.17
2022-08-27T01:27:20.717Z,17.30
2022-08-27T01:29:50.076Z,17.00
2022-08-27T01:32:22.591Z,16.05
2022-08-27T01:34:51.950Z,17.77
2022-08-27T01:37:23.662Z,16.95
2022-08-27T01:39:59.047Z,14.88
2022-08-27T01:42:33.333Z,16.67
2022-08-27T01:45:07.865Z,19.25
2022-08-27T01:47:38.077Z,22.48
2022-08-27T01:50:09.267Z,23.42
2022-08-27T01:52:37.603Z,21.90
2022-08-27T01:55:13.166Z,24.20
2022-08-27T01:57:42.490Z,23.00
2022-08-27T02:00:17.025Z,22.65
2022-08-27T02:02:47.208Z,25.80
2022-08-27T02:05:16.246Z,27.35
2022-08-27T02:07:46.638Z,30.63
2022-08-27T02:10:23.028Z,33.25
2022-08-27T02:12:52.628Z,30.33
2022-08-27T02:15:23.850Z,28.83
2022-08-27T02:17:52.661Z,25.63
2022-08-27T02:20:23.408Z,25.60
2022-08-27T02:22:56.223Z,26.90
2022-08-27T02:25:29.052Z,27.73
2022-08-27T02:28:01.022Z,24.88
2022-08-27T02:30:32.713Z,27.98
2022-08-27T02:33:02.960Z,29.30
2022-08-27T02:35:33.684Z,29.88
2022-08-27T02:38:02.429Z,25.70
2022-08-27T02:40:32.541Z,28.65
2022-08-27T02:43:01.214Z,28.33
2022-08-27T02:45:29.499Z,30.67
2022-08-27T02:47:57.765Z,28.85
2022-08-27T02:50:27.349Z,29.65
2022-08-27T02:52:55.901Z,31.00
2022-08-27T02:55:24.687Z,32.65
2022-08-27T02:57:54.674Z,27.40
2022-08-27T03:00:26.426Z,31.27
2022-08-27T03:02:54.549Z,33.05
2022-08-27T03:05:24.250Z,29.55
2022-08-27T03:07:52.579Z,31.35
2022-08-27T03:10:23.227Z,28.75
2022-08-27T03:12:52.631Z,27.50
2022-08-27T03:15:22.341Z,30.15
2022-08-27T03:18:08.355Z,30.02
2022-08-27T03:20:40.793Z,26.67
2022-08-27T03:23:10.514Z,28.88
2022-08-27T03:25:39.895Z,31.15
2022-08-27T03:28:17.818Z,29.58
2022-08-27T03:30:55.680Z,28.02
2022-08-27T03:33:23.861Z,30.45
2022-08-27T03:35:52.826Z,28.92
2022-08-27T03:38:22.234Z,26.92
2022-08-27T03:40:51.563Z,27.08
2022-08-27T03:43:23.449Z,28.88
2022-08-27T03:46:01.796Z,26.17
2022-08-27T03:48:32.083Z,31.67
2022-08-27T03:51:06.590Z,28.75
2022-08-27T03:53:36.539Z,27.80
2022-08-27T03:56:06.292Z,27.48
2022-08-27T03:58:35.484Z,28.20
2022-08-27T04:01:07.133Z,29.10
2022-08-27T04:03:36.685Z,27.98
2022-08-27T04:06:06.024Z,29.45
2022-08-27T04:08:34.078Z,25.30
2022-08-27T04:11:06.418Z,24.58
2022-08-27T04:13:34.674Z,27.30
2022-08-27T04:16:07.881Z,25.77
2022-08-27T04:18:36.277Z,26.60
2022-08-27T04:21:11.569Z,26.70
2022-08-27T04:23:41.813Z,23.55
2022-08-27T04:26:12.653Z,24.73
2022-08-27T04:28:40.803Z,21.58
2022-08-27T04:31:16.823Z,25.10
2022-08-27T04:33:51.300Z,23.95
2022-08-27T04:36:21.171Z,23.35
2022-08-27T04:38:50.160Z,23.50
2022-08-27T04:41:21.624Z,22.98
2022-08-27T04:43:53.846Z,23.45
2022-08-27T04:46:27.319Z,20.75
2022-08-27T04:48:59.635Z,25.85
2022-08-27T04:51:30.535Z,26.52
2022-08-27T04:53:59.935Z,23.40
2022-08-27T04:56:30.489Z,23.65
2022-08-27T04:58:58.969Z,24.92
2022-08-27T05:01:30.766Z,24.48
2022-08-27T05:03:59.983Z,28.17
2022-08-27T05:06:29.497Z,20.45
2022-08-27T05:08:58.761Z,26.23
2022-08-27T05:11:32.284Z,25.10
2022-08-27T05:14:03.647Z,23.95
2022-08-27T05:16:36.623Z,23.25
2022-08-27T05:19:08.909Z,25.67
2022-08-27T05:21:41.176Z,24.88
2022-08-27T05:24:09.530Z,23.83
2022-08-27T05:26:39.400Z,23.55
2022-08-27T05:29:08.058Z,24.25
2022-08-27T05:31:37.818Z,25.90
2022-08-27T05:34:10.571Z,25.48
2022-08-27T05:36:47.973Z,22.73
2022-08-27T05:39:18.433Z,26.63
2022-08-27T05:41:46.541Z,28.50
2022-08-27T05:44:40.673Z,26.55
2022-08-27T05:47:06.856Z,27.73
2022-08-27T05:49:35.569Z,29.00
2022-08-27T05:52:05.013Z,26.55
2022-08-27T05:54:33.875Z,27.58
2022-08-27T05:57:02.850Z,27.50
2022-08-27T05:59:48.808Z,24.30
2022-08-27T06:02:18.925Z,24.83
2022-08-27T06:04:47.742Z,23.40
2022-08-27T06:07:16.114Z,24.75
2022-08-27T06:09:44.537Z,24.58
2022-08-27T06:12:13.389Z,25.98
2022-08-27T06:14:42.529Z,26.02
2022-08-27T06:17:11.012Z,25.75
2022-08-27T06:19:42.298Z,26.05
2022-08-27T06:22:11.216Z,23.05
2022-08-27T06:24:42.011Z,25.42
2022-08-27T06:27:14.984Z,23.63
2022-08-27T06:29:44.370Z,24.33
2022-08-27T06:32:15.038Z,21.05
2022-08-27T06:34:44.889Z,24.80
2022-08-27T06:37:13.180Z,24.13
2022-08-27T06:39:42.100Z,23.60
2022-08-27T06:42:13.622Z,25.60
2022-08-27T06:44:43.182Z,23.58
2022-08-27T06:47:12.533Z,22.45
2022-08-27T06:49:43.814Z,21.17
2022-08-27T06:52:16.460Z,19.42
2022-08-27T06:54:45.340Z,22.05
2022-08-27T06:57:13.428Z,22.70
2022-08-27T06:59:41.745Z,22.70
2022-08-27T07:02:10.193Z,19.48
2022-08-27T07:04:38.384Z,20.30
2022-08-27T07:07:08.063Z,20.42
2022-08-27T07:09:37.534Z,22.00
2022-08-27T07:12:08.153Z,20.58
2022-08-27T07:14:38.250Z,20.85
2022-08-27T07:17:09.795Z,22.30
2022-08-27T07:19:41.205Z,17.90
2022-08-27T07:22:10.729Z,19.55
2022-08-27T07:24:41.194Z,21.00
2022-08-27T07:27:09.709Z,19.63
2022-08-27T07:29:38.563Z,17.52
2022-08-27T07:32:07.626Z,18.15
2022-08-27T07:34:36.776Z,20.52
2022-08-27T07:37:05.430Z,20.60
2022-08-27T07:39:33.595Z,22.05
2022-08-27T07:42:21.349Z,19.02
2022-08-27T07:44:49.904Z,18.05
2022-08-27T07:47:19.066Z,21.30
2022-08-27T07:49:47.725Z,18.05
2022-08-27T07:52:17.688Z,20.00
2022-08-27T07:54:45.857Z,20.08
2022-08-27T07:57:15.998Z,18.95
2022-08-27T07:59:44.426Z,20.05
2022-08-27T08:02:13.885Z,19.90
2022-08-27T08:04:42.706Z,22.38
2022-08-27T08:07:11.006Z,18.60
2022-08-27T08:09:40.386Z,23.00
2022-08-27T08:12:08.726Z,19.80
2022-08-27T08:14:38.512Z,22.65
2022-08-27T08:17:10.324Z,19.52
2022-08-27T08:19:40.553Z,18.92
2022-08-27T08:22:09.700Z,20.40
2022-08-27T08:24:38.337Z,21.45
2022-08-27T08:27:07.991Z,21.90
2022-08-27T08:29:39.208Z,20.52
2022-08-27T08:32:08.952Z,24.02
2022-08-27T08:34:37.642Z,21.20
2022-08-27T08:37:07.639Z,19.83
2022-08-27T08:39:38.743Z,22.65
2022-08-27T08:42:23.119Z,20.85
2022-08-27T08:44:55.733Z,21.02
2022-08-27T08:47:30.450Z,21.08
2022-08-27T08:50:08.558Z,22.02
2022-08-27T08:52:51.272Z,25.23
2022-08-27T08:55:35.561Z,21.90
2022-08-27T08:58:22.837Z,24.48
2022-08-27T09:00:57.429Z,24.48
2022-08-27T09:03:27.255Z,21.60
2022-08-27T09:06:02.291Z,21.42
2022-08-27T09:08:41.166Z,22.65
2022-08-27T09:11:21.877Z,25.02
2022-08-27T09:13:56.613Z,22.30
2022-08-27T09:16:26.410Z,22.77
2022-08-27T09:18:55.500Z,20.48
2022-08-27T09:21:40.323Z,23.65
2022-08-27T09:24:16.531Z,23.38
2022-08-27T09:26:47.297Z,25.77
2022-08-27T09:29:23.183Z,25.42
2022-08-27T09:31:58.930Z,22.90
2022-08-27T09:34:36.553Z,24.05
2022-08-27T09:37:12.651Z,22.80
2022-08-27T09:39:49.886Z,21.50
2022-08-27T09:42:31.905Z,23.27
2022-08-27T09:45:00.686Z,24.35
2022-08-27T09:47:31.375Z,25.52
2022-08-27T09:50:09.449Z,27.02
2022-08-27T09:52:51.119Z,25.02
2022-08-27T09:55:30.865Z,25.75
2022-08-27T09:58:00.345Z,24.17
2022-08-27T10:00:37.718Z,25.02
2022-08-27T10:03:10.606Z,26.33
2022-08-27T10:05:45.253Z,25.60
2022-08-27T10:08:26.798Z,25.17
2022-08-27T10:10:59.323Z,26.20
2022-08-27T10:13:34.818Z,25.95
2022-08-27T10:16:41.366Z,25.15
2022-08-27T10:19:26.517Z,26.05
2022-08-27T10:22:09.138Z,24.77
2022-08-27T10:24:56.612Z,25.75
2022-08-27T10:27:36.559Z,26.45
2022-08-27T10:30:10.192Z,23.30
2022-08-27T10:33:03.791Z,22.27
2022-08-27T10:35:47.903Z,23.02
2022-08-27T10:38:29.240Z,22.63
2022-08-27T10:41:09.673Z,21.40
2022-08-27T10:44:11.195Z,18.90
2022-08-27T10:47:02.001Z,20.15
2022-08-27T10:49:46.014Z,21.67
2022-08-27T10:52:24.621Z,19.88
2022-08-27T10:55:00.953Z,23.90
2022-08-27T10:58:00.159Z,26.33
2022-08-27T11:00:43.342Z,25.65
2022-08-27T11:03:17.598Z,24.15
2022-08-27T11:05:50.418Z,29.23
2022-08-27T11:08:27.619Z,30.23
2022-08-27T11:11:31.741Z,31.05
2022-08-27T11:14:00.975Z,32.40
2022-08-27T11:16:45.272Z,27.67
2022-08-27T11:19:20.839Z,30.15
2022-08-27T11:22:04.837Z,27.60
2022-08-27T11:24:44.867Z,28.58
2022-08-27T11:27:19.812Z,28.58
2022-08-27T11:29:52.986Z,27.58
2022-08-27T11:32:42.243Z,27.45
2022-08-27T11:35:24.546Z,28.02
2022-08-27T11:38:25.267Z,32.13
2022-08-27T11:41:21.008Z,30.17
2022-08-27T11:43:49.350Z,31.65
2022-08-27T11:46:26.965Z,31.02
2022-08-27T11:49:02.923Z,27.15
2022-08-27T11:51:35.423Z,30.80
2022-08-27T11:54:07.958Z,26.65
2022-08-27T11:56:43.691Z,24.95
2022-08-27T11:59:22.478Z,29.60
2022-08-27T12:01:53.047Z,31.55
2022-08-27T12:04:34.850Z,31.48
2022-08-27T12:07:11.748Z,30.60
2022-08-27T12:10:02.320Z,32.90
2022-08-27T12:12:49.086Z,28.33
2022-08-27T12:15:30.928Z,29.77
2022-08-27T12:18:20.580Z,28.58
2022-08-27T12:21:04.823Z,26.83
2022-08-27T12:23:46.412Z,24.40
2022-08-27T12:26:32.665Z,25.05
2022-08-27T12:29:31.288Z,27.35
2022-08-27T12:32:21.167Z,30.33
2022-08-27T12:34:59.951Z,30.38
2022-08-27T12:37:35.049Z,28.60
2022-08-27T12:40:12.810Z,28.98
2022-08-27T12:42:41.751Z,25.92
2022-08-27T12:45:21.827Z,28.95
2022-08-27T12:47:51.935Z,28.58
2022-08-27T12:50:30.655Z,25.77
2022-08-27T12:53:25.097Z,25.25
2022-08-27T12:56:20.170Z,26.70
2022-08-27T12:59:04.644Z,27.60
2022-08-27T13:01:57.015Z,26.35
2022-08-27T13:04:30.978Z,28.73
2022-08-27T13:06:59.527Z,29.77
2022-08-27T13:09:31.476Z,27.65
2022-08-27T13:12:03.126Z,25.50
2022-08-27T13:14:38.943Z,24.33
2022-08-27T13:17:13.059Z,23.73
2022-08-27T13:19:51.192Z,22.70
2022-08-27T13:22:24.237Z,25.30
2022-08-27T13:24:56.270Z,23.25
2022-08-27T13:27:27.936Z,22.45
2022-08-27T13:29:56.809Z,25.98
2022-08-27T13:32:31.280Z,26.02
2022-08-27T13:35:02.120Z,27.17
2022-08-27T13:37:39.323Z,23.95
2022-08-27T13:40:10.625Z,22.85
2022-08-27T13:42:45.023Z,25.70
2022-08-27T13:45:13.795Z,24.60
2022-08-27T13:47:49.294Z,23.52
2022-08-27T13:50:25.655Z,23.00
2022-08-27T13:53:20.719Z,25.67
2022-08-27T13:55:50.526Z,23.98
2022-08-27T13:58:26.477Z,22.92
2022-08-27T14:00:56.478Z,22.58
2022-08-27T14:03:34.910Z,23.00
2022-08-27T14:06:04.418Z,21.55
2022-08-27T14:08:36.814Z,21.88
2022-08-27T14:11:10.918Z,25.00
2022-08-27T14:13:44.020Z,27.23
2022-08-27T14:16:27.817Z,22.77
2022-08-27T14:19:09.233Z,22.20
2022-08-27T14:21:43.588Z,23.17
2022-08-27T14:24:14.011Z,25.50
2022-08-27T14:26:42.812Z,23.52
2022-08-27T14:29:11.925Z,23.50
2022-08-27T14:31:41.936Z,22.30
2022-08-27T14:34:11.620Z,22.83
2022-08-27T14:36:44.217Z,22.23
2022-08-27T14:39:14.068Z,22.98
2022-08-27T14:41:43.110Z,25.85
2022-08-27T14:44:13.783Z,23.80
2022-08-27T14:46:42.958Z,24.15
2022-08-27T14:49:22.740Z,20.30
2022-08-27T14:51:51.067Z,19.77
2022-08-27T14:54:19.555Z,20.15
2022-08-27T14:56:48.177Z,19.88
2022-08-27T14:59:16.871Z,20.52
2022-08-27T15:01:45.912Z,19.88
2022-08-27T15:04:16.845Z,18.50
2022-08-27T15:06:45.697Z,19.55
2022-08-27T15:09:16.819Z,19.75
2022-08-27T15:11:47.557Z,19.00
2022-08-27T15:14:23.530Z,17.20
2022-08-27T15:16:53.117Z,18.88
2022-08-27T15:19:26.464Z,17.08
2022-08-27T15:22:01.215Z,19.63
2022-08-27T15:24:43.002Z,20.98
2022-08-27T15:27:11.452Z,17.73
2022-08-27T15:29:41.340Z,18.02
2022-08-27T15:32:16.852Z,18.70
2022-08-27T15:34:47.063Z,19.20
2022-08-27T15:37:15.973Z,17.92
2022-08-27T15:39:44.425Z,20.90
2022-08-27T15:42:13.727Z,20.50
2022-08-27T15:44:49.112Z,20.45
2022-08-27T15:47:19.665Z,19.92
2022-08-27T15:49:49.491Z,18.92
2022-08-27T15:52:22.473Z,18.83
2022-08-27T15:54:51.210Z,19.65
2022-08-27T15:57:21.740Z,18.23
2022-08-27T15:59:51.164Z,19.20
2022-08-27T16:02:24.689Z,15.27
2022-08-27T16:04:54.620Z,16.92
2022-08-27T16:07:22.872Z,15.48
2022-08-27T16:09:51.109Z,17.10
2022-08-27T16:12:25.655Z,15.93
2022-08-27T16:14:55.977Z,13.88
2022-08-27T16:17:26.726Z,14.80
2022-08-27T16:19:56.585Z,15.50
2022-08-27T16:22:25.730Z,16.92
2022-08-27T16:24:53.961Z,16.10
2022-08-27T16:27:22.389Z,14.45
2022-08-27T16:29:51.515Z,15.35
2022-08-27T16:32:20.488Z,16.83
2022-08-27T16:34:55.749Z,14.65
2022-08-27T16:37:26.343Z,13.88
2022-08-27T16:39:55.433Z,15.82
2022-08-27T16:42:23.807Z,15.40
2022-08-27T16:44:52.631Z,18.20
2022-08-27T16:47:21.010Z,16.17
2022-08-27T16:50:06.928Z,16.52
2022-08-27T16:52:37.516Z,16.23
2022-08-27T16:55:06.812Z,17.38
2022-08-27T16:57:35.098Z,15.32
2022-08-27T17:00:04.299Z,16.02
2022-08-27T17:02:35.358Z,18.80
2022-08-27T17:07:53.905Z,14.85
2022-08-27T17:10:22.519Z,18.30
2022-08-27T17:12:50.485Z,16.38
2022-08-27T17:15:19.674Z,16.58
2022-08-27T17:17:49.140Z,15.82
2022-08-27T17:20:17.435Z,15.50
2022-08-27T17:22:45.595Z,15.02
2022-08-27T17:25:15.010Z,14.55
2022-08-27T17:27:43.664Z,16.98
2022-08-27T17:30:13.055Z,13.95
2022-08-27T17:32:45.411Z,17.08
2022-08-27T17:35:14.105Z,13.52
2022-08-27T17:37:44.140Z,17.50
2022-08-27T17:40:14.339Z,17.58
2022-08-27T17:42:42.626Z,15.45
2022-08-27T17:45:12.639Z,18.27
2022-08-27T17:47:40.754Z,16.92
2022-08-27T17:50:11.551Z,15.45
2022-08-27T17:52:40.363Z,18.42
2022-08-27T17:55:09.694Z,16.52
2022-08-27T17:57:40.736Z,16.58
2022-08-27T18:00:14.341Z,18.40
2022-08-27T18:02:47.391Z,17.67
2022-08-27T18:05:18.574Z,22.33
2022-08-27T18:07:48.608Z,18.38
2022-08-27T18:10:22.714Z,17.85
2022-08-27T18:12:53.428Z,20.38
2022-08-27T18:15:26.868Z,18.33
2022-08-27T18:17:56.992Z,19.83
2022-08-27T18:20:29.850Z,17.50
2022-08-27T18:22:58.974Z,18.05
2022-08-27T18:25:35.948Z,17.13
2022-08-27T18:28:10.245Z,18.42
2022-08-27T18:30:41.437Z,19.55
2022-08-27T18:33:10.195Z,19.67
2022-08-27T18:35:40.782Z,18.30
2022-08-27T18:38:09.775Z,18.77
2022-08-27T18:40:42.842Z,18.73
2022-08-27T18:43:13.121Z,17.75
2022-08-27T18:45:41.328Z,17.77
2022-08-27T18:48:15.472Z,19.77
2022-08-27T18:50:50.625Z,18.73
2022-08-27T18:53:21.462Z,18.95
2022-08-27T18:55:51.857Z,20.88
2022-08-27T18:58:21.440Z,18.13
2022-08-27T19:00:55.277Z,18.40
2022-08-27T19:03:28.574Z,18.77
2022-08-27T19:05:57.449Z,17.50
2022-08-27T19:08:29.014Z,16.45
2022-08-27T19:10:58.221Z,17.00
2022-08-27T19:13:28.085Z,15.80
2022-08-27T19:16:00.193Z,17.67
2022-08-27T19:18:31.186Z,16.67
2022-08-27T19:20:59.803Z,17.52
2022-08-27T19:23:28.189Z,15.55
2022-08-27T19:25:57.409Z,16.80
2022-08-27T19:28:36.568Z,14.40
2022-08-27T19:31:05.223Z,16.17
2022-08-27T19:33:33.517Z,14.27
2022-08-27T19:36:03.173Z,16.45
2022-08-27T19:38:34.321Z,14.98
2022-08-27T19:41:04.314Z,16.67
2022-08-27T19:43:34.568Z,15.70
2022-08-27T19:46:05.615Z,16.85
2022-08-27T19:48:35.989Z,18.75
2022-08-27T19:51:04.221Z,17.27
2022-08-27T19:53:33.074Z,16.15
2022-08-27T19:56:01.171Z,19.27
2022-08-27T19:58:29.862Z,17.63
2022-08-27T20:00:59.416Z,15.75
2022-08-27T20:03:28.474Z,15.35
2022-08-27T20:05:57.193Z,17.92
2022-08-27T20:08:25.507Z,17.08
2022-08-27T20:10:54.038Z,16.88
2022-08-27T20:13:22.730Z,15.52
2022-08-27T20:15:52.180Z,16.55
2022-08-27T20:18:23.166Z,15.10
2022-08-27T20:20:51.316Z,15.43
2022-08-27T20:23:20.409Z,15.13
2022-08-27T20:25:48.528Z,17.00
2022-08-27T20:28:38.492Z,14.95
2022-08-27T20:31:06.267Z,16.60
2022-08-27T20:33:36.194Z,15.57
2022-08-27T20:36:05.189Z,15.60
2022-08-27T20:38:33.792Z,16.27
2022-08-27T20:41:02.727Z,14.82
2022-08-27T20:43:30.861Z,16.48
2022-08-27T20:46:00.629Z,14.48
2022-08-27T20:48:29.231Z,16.48
2022-08-27T20:50:59.472Z,14.30
2022-08-27T20:53:28.479Z,15.02
2022-08-27T20:55:56.776Z,14.88
2022-08-27T20:58:43.765Z,17.17
2022-08-27T21:01:12.457Z,15.73
2022-08-27T21:03:41.181Z,17.58
2022-08-27T21:06:11.334Z,16.42
2022-08-27T21:08:41.001Z,16.40
2022-08-27T21:11:13.207Z,17.08
2022-08-27T21:13:55.707Z,17.35
2022-08-27T21:16:25.926Z,15.95
2022-08-27T21:18:55.762Z,14.05
2022-08-27T21:21:25.660Z,15.00
2022-08-27T21:23:53.860Z,15.32
2022-08-27T21:26:22.960Z,15.55
2022-08-27T21:28:55.442Z,16.20
2022-08-27T21:31:25.489Z,15.10
2022-08-27T21:33:53.665Z,16.25
2022-08-27T21:36:21.956Z,18.17
2022-08-27T21:38:52.197Z,16.73
2022-08-27T21:41:22.030Z,14.57
2022-08-27T21:43:51.202Z,17.15
2022-08-27T21:46:20.360Z,17.92
2022-08-27T21:48:57.662Z,17.58
2022-08-27T21:51:27.904Z,16.98
2022-08-27T21:53:59.962Z,15.18
2022-08-27T21:56:29.563Z,18.33
2022-08-27T21:58:57.986Z,15.13
2022-08-27T22:01:26.533Z,17.17
2022-08-27T22:03:55.171Z,16.10
2022-08-27T22:06:23.447Z,16.63
2022-08-27T22:08:52.250Z,15.43
2022-08-27T22:11:24.148Z,16.88
2022-08-27T22:13:53.621Z,15.63
2022-08-27T22:16:21.775Z,19.35
2022-08-27T22:18:54.876Z,17.65
2022-08-27T22:21:24.032Z,18.13
2022-08-27T22:23:52.749Z,15.40
2022-08-27T22:26:23.534Z,17.85
2022-08-27T22:28:51.934Z,15.80
2022-08-27T22:31:21.514Z,15.50
2022-08-27T22:33:50.111Z,16.58
2022-08-27T22:36:18.321Z,15.55
2022-08-27T22:38:47.687Z,16.40
2022-08-27T22:41:18.473Z,16.05
2022-08-27T22:43:48.250Z,13.75
2022-08-27T22:46:16.995Z,17.38
2022-08-27T22:48:45.843Z,17.02
2022-08-27T22:51:14.034Z,18.08
2022-08-27T22:53:43.150Z,16.35
2022-08-27T22:56:11.318Z,14.88
2022-08-27T22:58:40.579Z,16.08
2022-08-27T23:01:20.800Z,15.82
2022-08-27T23:03:49.523Z,15.50
2022-08-27T23:06:18.222Z,16.77
2022-08-27T23:08:46.570Z,14.85
2022-08-27T23:11:16.097Z,14.25
2022-08-27T23:13:44.954Z,15.13
2022-08-27T23:16:14.655Z,13.73
2022-08-27T23:18:45.638Z,15.90
2022-08-27T23:21:14.436Z,15.77
2022-08-27T23:23:43.071Z,15.52
2022-08-27T23:26:28.909Z,13.55
2022-08-27T23:28:56.986Z,14.50
2022-08-27T23:31:26.125Z,14.05
2022-08-27T23:33:56.318Z,14.27
2022-08-27T23:36:24.787Z,13.40
2022-08-27T23:38:53.550Z,12.10
2022-08-27T23:41:23.037Z,14.10
2022-08-27T23:43:51.258Z,13.63
2022-08-27T23:46:19.407Z,15.05
2022-08-27T23:48:47.702Z,12.85
2022-08-27T23:51:17.762Z,12.45
2022-08-27T23:53:45.894Z,13.45
2022-08-27T23:56:14.703Z,13.57
2022-08-27T23:58:42.738Z,13.43
